sensor_id;sensor_type;location;lat;lon;timestamp;pressure;altitude;pressure_sealevel;temperature
27986;BMP280;15453;53.692;10.168;2023-04-25T00:00:13;100092.53;;;12.85
27986;BMP280;15453;53.692;10.168;2023-04-25T00:02:39;100091.72;;;12.90
27986;BMP280;15453;53.692;10.168;2023-04-25T00:05:04;100091.72;;;12.90
27986;BMP280;15453;53.692;10.168;2023-04-25T00:07:30;100093.63;;;12.89
27986;BMP280;15453;53.692;10.168;2023-04-25T00:09:56;100095.00;;;12.87
27986;BMP280;15453;53.692;10.168;2023-04-25T00:12:21;100106.81;;;12.87
27986;BMP280;15453;53.692;10.168;2023-04-25T00:14:48;100106.81;;;12.87
27986;BMP280;15453;53.692;10.168;2023-04-25T00:17:14;100104.38;;;12.76
27986;BMP280;15453;53.692;10.168;2023-04-25T00:19:40;100107.69;;;12.73
27986;BMP280;15453;53.692;10.168;2023-04-25T00:22:05;100123.91;;;12.69
27986;BMP280;15453;53.692;10.168;2023-04-25T00:24:30;100116.50;;;12.65
27986;BMP280;15453;53.692;10.168;2023-04-25T00:26:56;100111.84;;;12.60
27986;BMP280;15453;53.692;10.168;2023-04-25T00:29:21;100117.34;;;12.55
27986;BMP280;15453;53.692;10.168;2023-04-25T00:31:46;100116.78;;;12.48
27986;BMP280;15453;53.692;10.168;2023-04-25T00:34:11;100119.00;;;12.46
27986;BMP280;15453;53.692;10.168;2023-04-25T00:36:37;100124.50;;;12.41
27986;BMP280;15453;53.692;10.168;2023-04-25T00:39:03;100124.50;;;12.41
27986;BMP280;15453;53.692;10.168;2023-04-25T00:41:29;100135.75;;;12.35
27986;BMP280;15453;53.692;10.168;2023-04-25T00:43:55;100124.25;;;12.33
27986;BMP280;15453;53.692;10.168;2023-04-25T00:46:21;100129.16;;;12.31
27986;BMP280;15453;53.692;10.168;2023-04-25T00:48:47;100129.16;;;12.31
27986;BMP280;15453;53.692;10.168;2023-04-25T00:51:20;100133.28;;;12.28
27986;BMP280;15453;53.692;10.168;2023-04-25T00:53:46;100129.47;;;12.29
27986;BMP280;15453;53.692;10.168;2023-04-25T00:56:13;100134.66;;;12.26
27986;BMP280;15453;53.692;10.168;2023-04-25T00:58:38;100134.66;;;12.26
27986;BMP280;15453;53.692;10.168;2023-04-25T01:01:05;100125.31;;;12.22
27986;BMP280;15453;53.692;10.168;2023-04-25T01:03:33;100128.59;;;12.19
27986;BMP280;15453;53.692;10.168;2023-04-25T01:06:01;100129.19;;;12.16
27986;BMP280;15453;53.692;10.168;2023-04-25T01:08:26;100129.19;;;12.16
27986;BMP280;15453;53.692;10.168;2023-04-25T01:10:52;100130.25;;;12.10
27986;BMP280;15453;53.692;10.168;2023-04-25T01:13:17;100130.25;;;12.10
27986;BMP280;15453;53.692;10.168;2023-04-25T01:15:42;100131.63;;;12.07
27986;BMP280;15453;53.692;10.168;2023-04-25T01:18:09;100131.63;;;12.07
27986;BMP280;15453;53.692;10.168;2023-04-25T01:20:36;100135.47;;;12.06
27986;BMP280;15453;53.692;10.168;2023-04-25T01:23:02;100137.13;;;12.02
27986;BMP280;15453;53.692;10.168;2023-04-25T01:25:29;100137.13;;;12.02
27986;BMP280;15453;53.692;10.168;2023-04-25T01:27:55;100134.38;;;12.02
27986;BMP280;15453;53.692;10.168;2023-04-25T01:30:20;100143.41;;;11.98
27986;BMP280;15453;53.692;10.168;2023-04-25T01:32:47;100151.13;;;11.96
27986;BMP280;15453;53.692;10.168;2023-04-25T01:35:13;100151.13;;;11.96
27986;BMP280;15453;53.692;10.168;2023-04-25T01:37:42;100148.09;;;11.92
27986;BMP280;15453;53.692;10.168;2023-04-25T01:40:09;100148.91;;;11.88
27986;BMP280;15453;53.692;10.168;2023-04-25T01:42:37;100149.44;;;11.84
27986;BMP280;15453;53.692;10.168;2023-04-25T01:45:03;100153.28;;;11.78
27986;BMP280;15453;53.692;10.168;2023-04-25T01:47:28;100156.28;;;11.77
27986;BMP280;15453;53.692;10.168;2023-04-25T01:49:54;100156.28;;;11.77
27986;BMP280;15453;53.692;10.168;2023-04-25T01:52:19;100156.28;;;11.72
27986;BMP280;15453;53.692;10.168;2023-04-25T01:54:45;100156.28;;;11.72
27986;BMP280;15453;53.692;10.168;2023-04-25T01:57:11;100163.16;;;11.69
27986;BMP280;15453;53.692;10.168;2023-04-25T01:59:37;100161.78;;;11.67
27986;BMP280;15453;53.692;10.168;2023-04-25T02:02:02;100161.78;;;11.67
27986;BMP280;15453;53.692;10.168;2023-04-25T02:04:32;100172.69;;;11.62
27986;BMP280;15453;53.692;10.168;2023-04-25T02:06:57;100172.69;;;11.62
27986;BMP280;15453;53.692;10.168;2023-04-25T02:09:22;100172.16;;;11.60
27986;BMP280;15453;53.692;10.168;2023-04-25T02:11:48;100182.88;;;11.61
27986;BMP280;15453;53.692;10.168;2023-04-25T02:14:13;100181.75;;;11.62
27986;BMP280;15453;53.692;10.168;2023-04-25T02:16:39;100181.75;;;11.62
27986;BMP280;15453;53.692;10.168;2023-04-25T02:19:04;100181.72;;;11.57
27986;BMP280;15453;53.692;10.168;2023-04-25T02:21:30;100180.06;;;11.56
27986;BMP280;15453;53.692;10.168;2023-04-25T02:23:56;100182.50;;;11.53
27986;BMP280;15453;53.692;10.168;2023-04-25T02:26:22;100181.41;;;11.49
27986;BMP280;15453;53.692;10.168;2023-04-25T02:28:49;100181.97;;;11.46
27986;BMP280;15453;53.692;10.168;2023-04-25T02:31:14;100181.97;;;11.46
27986;BMP280;15453;53.692;10.168;2023-04-25T02:33:39;100186.34;;;11.42
27986;BMP280;15453;53.692;10.168;2023-04-25T02:36:05;100185.47;;;11.36
27986;BMP280;15453;53.692;10.168;2023-04-25T02:38:30;100179.66;;;11.28
27986;BMP280;15453;53.692;10.168;2023-04-25T02:40:55;100183.22;;;11.23
27986;BMP280;15453;53.692;10.168;2023-04-25T02:43:21;100185.41;;;11.21
27986;BMP280;15453;53.692;10.168;2023-04-25T02:45:47;100181.28;;;11.19
27986;BMP280;15453;53.692;10.168;2023-04-25T02:48:12;100181.28;;;11.19
27986;BMP280;15453;53.692;10.168;2023-04-25T02:50:37;100193.06;;;11.14
27986;BMP280;15453;53.692;10.168;2023-04-25T02:53:02;100187.84;;;11.13
27986;BMP280;15453;53.692;10.168;2023-04-25T02:55:28;100187.84;;;11.13
27986;BMP280;15453;53.692;10.168;2023-04-25T02:57:53;100187.25;;;11.11
27986;BMP280;15453;53.692;10.168;2023-04-25T03:00:20;100187.25;;;11.11
27986;BMP280;15453;53.692;10.168;2023-04-25T03:02:46;100200.09;;;11.05
27986;BMP280;15453;53.692;10.168;2023-04-25T03:05:11;100195.97;;;11.03
27986;BMP280;15453;53.692;10.168;2023-04-25T03:07:36;100192.16;;;11.04
27986;BMP280;15453;53.692;10.168;2023-04-25T03:10:01;100200.91;;;11.01
27986;BMP280;15453;53.692;10.168;2023-04-25T03:12:27;100194.88;;;10.99
27986;BMP280;15453;53.692;10.168;2023-04-25T03:14:52;100203.88;;;10.94
27986;BMP280;15453;53.692;10.168;2023-04-25T03:17:17;100201.09;;;10.89
27986;BMP280;15453;53.692;10.168;2023-04-25T03:19:43;100201.09;;;10.89
27986;BMP280;15453;53.692;10.168;2023-04-25T03:22:08;100204.06;;;10.83
27986;BMP280;15453;53.692;10.168;2023-04-25T03:24:33;100209.84;;;10.81
27986;BMP280;15453;53.692;10.168;2023-04-25T03:26:58;100201.31;;;10.78
27986;BMP280;15453;53.692;10.168;2023-04-25T03:29:24;100203.75;;;10.74
27986;BMP280;15453;53.692;10.168;2023-04-25T03:31:51;100212.22;;;10.73
27986;BMP280;15453;53.692;10.168;2023-04-25T03:34:16;100207.25;;;10.70
27986;BMP280;15453;53.692;10.168;2023-04-25T03:36:41;100218.75;;;10.67
27986;BMP280;15453;53.692;10.168;2023-04-25T03:39:07;100218.75;;;10.67
27986;BMP280;15453;53.692;10.168;2023-04-25T03:41:32;100229.41;;;10.63
27986;BMP280;15453;53.692;10.168;2023-04-25T03:43:57;100237.31;;;10.60
27986;BMP280;15453;53.692;10.168;2023-04-25T03:46:22;100233.19;;;10.57
27986;BMP280;15453;53.692;10.168;2023-04-25T03:48:48;100234.56;;;10.55
27986;BMP280;15453;53.692;10.168;2023-04-25T03:51:13;100234.56;;;10.55
27986;BMP280;15453;53.692;10.168;2023-04-25T03:53:38;100238.63;;;10.52
27986;BMP280;15453;53.692;10.168;2023-04-25T03:56:04;100241.38;;;10.52
27986;BMP280;15453;53.692;10.168;2023-04-25T03:58:29;100237.81;;;10.52
27986;BMP280;15453;53.692;10.168;2023-04-25T04:00:54;100248.75;;;10.52
27986;BMP280;15453;53.692;10.168;2023-04-25T04:03:20;100247.09;;;10.51
27986;BMP280;15453;53.692;10.168;2023-04-25T04:05:45;100256.41;;;10.50
27986;BMP280;15453;53.692;10.168;2023-04-25T04:08:11;100253.94;;;10.48
27986;BMP280;15453;53.692;10.168;2023-04-25T04:10:36;100259.66;;;10.47
27986;BMP280;15453;53.692;10.168;2023-04-25T04:13:02;100260.75;;;10.46
27986;BMP280;15453;53.692;10.168;2023-04-25T04:15:27;100260.75;;;10.46
27986;BMP280;15453;53.692;10.168;2023-04-25T04:17:52;100264.31;;;10.46
27986;BMP280;15453;53.692;10.168;2023-04-25T04:20:19;100254.19;;;10.47
27986;BMP280;15453;53.692;10.168;2023-04-25T04:22:44;100254.19;;;10.47
27986;BMP280;15453;53.692;10.168;2023-04-25T04:25:09;100268.69;;;10.47
27986;BMP280;15453;53.692;10.168;2023-04-25T04:27:36;100268.97;;;10.46
27986;BMP280;15453;53.692;10.168;2023-04-25T04:30:02;100268.97;;;10.46
27986;BMP280;15453;53.692;10.168;2023-04-25T04:32:28;100261.81;;;10.45
27986;BMP280;15453;53.692;10.168;2023-04-25T04:34:55;100268.38;;;10.44
27986;BMP280;15453;53.692;10.168;2023-04-25T04:37:21;100269.25;;;10.49
27986;BMP280;15453;53.692;10.168;2023-04-25T04:39:49;100269.25;;;10.49
27986;BMP280;15453;53.692;10.168;2023-04-25T04:42:15;100278.03;;;10.51
27986;BMP280;15453;53.692;10.168;2023-04-25T04:44:40;100283.25;;;10.53
27986;BMP280;15453;53.692;10.168;2023-04-25T04:47:05;100284.09;;;10.53
27986;BMP280;15453;53.692;10.168;2023-04-25T04:49:31;100299.41;;;10.54
27986;BMP280;15453;53.692;10.168;2023-04-25T04:51:56;100299.41;;;10.54
27986;BMP280;15453;53.692;10.168;2023-04-25T04:54:21;100282.44;;;10.52
27986;BMP280;15453;53.692;10.168;2023-04-25T04:56:46;100298.41;;;10.60
27986;BMP280;15453;53.692;10.168;2023-04-25T04:59:12;100292.63;;;10.62
27986;BMP280;15453;53.692;10.168;2023-04-25T05:01:37;100277.88;;;10.63
27986;BMP280;15453;53.692;10.168;2023-04-25T05:04:03;100277.88;;;10.63
27986;BMP280;15453;53.692;10.168;2023-04-25T05:06:29;100300.09;;;10.66
27986;BMP280;15453;53.692;10.168;2023-04-25T05:08:58;100300.09;;;10.66
27986;BMP280;15453;53.692;10.168;2023-04-25T05:11:23;100295.97;;;10.64
27986;BMP280;15453;53.692;10.168;2023-04-25T05:13:51;100299.56;;;10.69
27986;BMP280;15453;53.692;10.168;2023-04-25T05:16:16;100299.56;;;10.69
27986;BMP280;15453;53.692;10.168;2023-04-25T05:18:41;100303.13;;;10.70
27986;BMP280;15453;53.692;10.168;2023-04-25T05:21:07;100319.91;;;10.78
27986;BMP280;15453;53.692;10.168;2023-04-25T05:23:32;100327.03;;;10.79
27986;BMP280;15453;53.692;10.168;2023-04-25T05:25:58;100327.03;;;10.79
27986;BMP280;15453;53.692;10.168;2023-04-25T05:28:23;100326.19;;;10.79
27986;BMP280;15453;53.692;10.168;2023-04-25T05:30:49;100322.41;;;10.80
27986;BMP280;15453;53.692;10.168;2023-04-25T05:33:14;100323.78;;;10.82
27986;BMP280;15453;53.692;10.168;2023-04-25T05:35:40;100339.97;;;10.84
27986;BMP280;15453;53.692;10.168;2023-04-25T05:38:05;100339.97;;;10.84
27986;BMP280;15453;53.692;10.168;2023-04-25T05:40:31;100344.31;;;10.80
27986;BMP280;15453;53.692;10.168;2023-04-25T05:42:56;100339.34;;;10.77
27986;BMP280;15453;53.692;10.168;2023-04-25T05:45:22;100346.72;;;10.76
27986;BMP280;15453;53.692;10.168;2023-04-25T05:47:47;100346.72;;;10.76
27986;BMP280;15453;53.692;10.168;2023-04-25T05:50:12;100341.19;;;10.71
27986;BMP280;15453;53.692;10.168;2023-04-25T05:52:37;100361.72;;;10.69
27986;BMP280;15453;53.692;10.168;2023-04-25T05:55:04;100369.94;;;10.69
27986;BMP280;15453;53.692;10.168;2023-04-25T05:57:29;100374.84;;;10.67
27986;BMP280;15453;53.692;10.168;2023-04-25T05:59:54;100363.31;;;10.65
27986;BMP280;15453;53.692;10.168;2023-04-25T06:02:20;100363.31;;;10.65
27986;BMP280;15453;53.692;10.168;2023-04-25T06:04:47;100348.25;;;10.62
27986;BMP280;15453;53.692;10.168;2023-04-25T06:07:12;100347.16;;;10.63
27986;BMP280;15453;53.692;10.168;2023-04-25T06:09:38;100348.25;;;10.62
27986;BMP280;15453;53.692;10.168;2023-04-25T06:12:05;100348.25;;;10.62
27986;BMP280;15453;53.692;10.168;2023-04-25T06:14:30;100355.09;;;10.65
27986;BMP280;15453;53.692;10.168;2023-04-25T06:16:56;100355.09;;;10.65
27986;BMP280;15453;53.692;10.168;2023-04-25T06:19:21;100355.94;;;10.65
27986;BMP280;15453;53.692;10.168;2023-04-25T06:21:46;100351.59;;;10.69
27986;BMP280;15453;53.692;10.168;2023-04-25T06:24:12;100351.59;;;10.69
27986;BMP280;15453;53.692;10.168;2023-04-25T06:26:37;100351.91;;;10.73
27986;BMP280;15453;53.692;10.168;2023-04-25T06:29:02;100348.66;;;10.76
27986;BMP280;15453;53.692;10.168;2023-04-25T06:31:27;100348.66;;;10.76
27986;BMP280;15453;53.692;10.168;2023-04-25T06:33:54;100343.22;;;10.81
27986;BMP280;15453;53.692;10.168;2023-04-25T06:36:23;100356.16;;;10.85
27986;BMP280;15453;53.692;10.168;2023-04-25T06:38:53;100358.59;;;10.87
27986;BMP280;15453;53.692;10.168;2023-04-25T06:41:18;100357.25;;;10.89
27986;BMP280;15453;53.692;10.168;2023-04-25T06:43:44;100357.25;;;10.89
27986;BMP280;15453;53.692;10.168;2023-04-25T06:46:09;100367.69;;;10.92
27986;BMP280;15453;53.692;10.168;2023-04-25T06:48:34;100369.91;;;10.95
27986;BMP280;15453;53.692;10.168;2023-04-25T06:51:00;100369.91;;;10.95
27986;BMP280;15453;53.692;10.168;2023-04-25T06:53:25;100372.66;;;10.95
27986;BMP280;15453;53.692;10.168;2023-04-25T06:55:50;100387.53;;;11.04
27986;BMP280;15453;53.692;10.168;2023-04-25T06:58:16;100386.97;;;11.02
27986;BMP280;15453;53.692;10.168;2023-04-25T07:00:41;100398.75;;;11.03
27986;BMP280;15453;53.692;10.168;2023-04-25T07:03:06;100400.09;;;11.00
27986;BMP280;15453;53.692;10.168;2023-04-25T07:05:32;100396.81;;;10.98
27986;BMP280;15453;53.692;10.168;2023-04-25T07:07:57;100397.31;;;10.95
27986;BMP280;15453;53.692;10.168;2023-04-25T07:10:22;100399.22;;;10.95
27986;BMP280;15453;53.692;10.168;2023-04-25T07:12:47;100391.00;;;10.95
27986;BMP280;15453;53.692;10.168;2023-04-25T07:15:13;100397.56;;;10.94
27986;BMP280;15453;53.692;10.168;2023-04-25T07:17:38;100397.56;;;10.94
27986;BMP280;15453;53.692;10.168;2023-04-25T07:20:04;100413.78;;;11.00
27986;BMP280;15453;53.692;10.168;2023-04-25T07:22:30;100409.19;;;11.06
27986;BMP280;15453;53.692;10.168;2023-04-25T07:24:56;100409.19;;;11.06
27986;BMP280;15453;53.692;10.168;2023-04-25T07:27:21;100396.00;;;11.03
27986;BMP280;15453;53.692;10.168;2023-04-25T07:29:46;100398.75;;;11.03
27986;BMP280;15453;53.692;10.168;2023-04-25T07:32:11;100397.94;;;11.02
27986;BMP280;15453;53.692;10.168;2023-04-25T07:34:38;100398.50;;;11.04
27986;BMP280;15453;53.692;10.168;2023-04-25T07:37:04;100401.81;;;11.06
27986;BMP280;15453;53.692;10.168;2023-04-25T07:39:29;100412.22;;;11.09
27986;BMP280;15453;53.692;10.168;2023-04-25T07:41:55;100412.22;;;11.09
27986;BMP280;15453;53.692;10.168;2023-04-25T07:44:21;100410.63;;;11.13
27986;BMP280;15453;53.692;10.168;2023-04-25T07:46:46;100415.03;;;11.14
27986;BMP280;15453;53.692;10.168;2023-04-25T07:49:11;100412.59;;;11.18
27986;BMP280;15453;53.692;10.168;2023-04-25T07:51:37;100417.56;;;11.21
27986;BMP280;15453;53.692;10.168;2023-04-25T07:54:02;100421.16;;;11.26
27986;BMP280;15453;53.692;10.168;2023-04-25T07:56:27;100408.31;;;11.32
27986;BMP280;15453;53.692;10.168;2023-04-25T07:58:53;100419.91;;;11.39
27986;BMP280;15453;53.692;10.168;2023-04-25T08:01:18;100412.28;;;11.46
27986;BMP280;15453;53.692;10.168;2023-04-25T08:03:45;100412.28;;;11.46
27986;BMP280;15453;53.692;10.168;2023-04-25T08:06:11;100422.22;;;11.57
27986;BMP280;15453;53.692;10.168;2023-04-25T08:08:36;100422.22;;;11.57
27986;BMP280;15453;53.692;10.168;2023-04-25T08:11:01;100403.13;;;11.67
27986;BMP280;15453;53.692;10.168;2023-04-25T08:13:26;100403.44;;;11.70
27986;BMP280;15453;53.692;10.168;2023-04-25T08:15:52;100403.44;;;11.70
27986;BMP280;15453;53.692;10.168;2023-04-25T08:18:17;100419.66;;;11.77
27986;BMP280;15453;53.692;10.168;2023-04-25T08:20:42;100433.09;;;11.78
27986;BMP280;15453;53.692;10.168;2023-04-25T08:23:08;100451.47;;;11.78
27986;BMP280;15453;53.692;10.168;2023-04-25T08:25:33;100451.47;;;11.78
27986;BMP280;15453;53.692;10.168;2023-04-25T08:27:58;100456.06;;;11.67
27986;BMP280;15453;53.692;10.168;2023-04-25T08:30:24;100448.63;;;11.63
27986;BMP280;15453;53.692;10.168;2023-04-25T08:32:50;100470.50;;;11.58
27986;BMP280;15453;53.692;10.168;2023-04-25T08:35:15;100456.22;;;11.56
27986;BMP280;15453;53.692;10.168;2023-04-25T08:37:41;100465.50;;;11.50
27986;BMP280;15453;53.692;10.168;2023-04-25T08:40:11;100461.91;;;11.44
27986;BMP280;15453;53.692;10.168;2023-04-25T08:42:37;100461.91;;;11.44
27986;BMP280;15453;53.692;10.168;2023-04-25T08:45:02;100457.19;;;11.40
27986;BMP280;15453;53.692;10.168;2023-04-25T08:47:30;100455.06;;;11.47
27986;BMP280;15453;53.692;10.168;2023-04-25T08:49:59;100465.22;;;11.51
27986;BMP280;15453;53.692;10.168;2023-04-25T08:52:28;100465.22;;;11.51
27986;BMP280;15453;53.692;10.168;2023-04-25T08:54:56;100458.97;;;11.56
27986;BMP280;15453;53.692;10.168;2023-04-25T08:57:22;100458.97;;;11.56
27986;BMP280;15453;53.692;10.168;2023-04-25T08:59:48;100461.88;;;11.71
27986;BMP280;15453;53.692;10.168;2023-04-25T09:02:13;100466.03;;;11.78
27986;BMP280;15453;53.692;10.168;2023-04-25T09:04:43;100466.03;;;11.78
27986;BMP280;15453;53.692;10.168;2023-04-25T09:07:08;100478.53;;;12.01
27986;BMP280;15453;53.692;10.168;2023-04-25T09:09:34;100478.53;;;12.01
27986;BMP280;15453;53.692;10.168;2023-04-25T09:12:00;100480.22;;;12.07
27986;BMP280;15453;53.692;10.168;2023-04-25T09:14:26;100488.53;;;12.17
27986;BMP280;15453;53.692;10.168;2023-04-25T09:17:04;100488.53;;;12.17
27986;BMP280;15453;53.692;10.168;2023-04-25T09:19:35;100503.63;;;12.20
27986;BMP280;15453;53.692;10.168;2023-04-25T09:22:02;100509.13;;;12.20
27986;BMP280;15453;53.692;10.168;2023-04-25T09:27:11;100496.19;;;12.15
27986;BMP280;15453;53.692;10.168;2023-04-25T09:29:39;100499.75;;;12.16
27986;BMP280;15453;53.692;10.168;2023-04-25T09:32:22;100514.91;;;12.23
27986;BMP280;15453;53.692;10.168;2023-04-25T09:34:49;100514.91;;;12.23
27986;BMP280;15453;53.692;10.168;2023-04-25T09:37:19;100515.47;;;12.25
27986;BMP280;15453;53.692;10.168;2023-04-25T09:39:46;100523.41;;;12.27
27986;BMP280;15453;53.692;10.168;2023-04-25T09:42:15;100517.41;;;12.30
27986;BMP280;15453;53.692;10.168;2023-04-25T09:44:44;100522.91;;;12.30
27986;BMP280;15453;53.692;10.168;2023-04-25T09:47:11;100523.19;;;12.33
27986;BMP280;15453;53.692;10.168;2023-04-25T09:49:39;100527.88;;;12.38
27986;BMP280;15453;53.692;10.168;2023-04-25T09:52:06;100533.41;;;12.43
27986;BMP280;15453;53.692;10.168;2023-04-25T09:54:31;100527.66;;;12.44
27986;BMP280;15453;53.692;10.168;2023-04-25T09:56:57;100527.66;;;12.44
27986;BMP280;15453;53.692;10.168;2023-04-25T09:59:26;100531.53;;;12.53
27986;BMP280;15453;53.692;10.168;2023-04-25T10:01:53;100531.53;;;12.53
27986;BMP280;15453;53.692;10.168;2023-04-25T10:04:24;100535.41;;;12.57
27986;BMP280;15453;53.692;10.168;2023-04-25T10:06:51;100527.75;;;12.59
27986;BMP280;15453;53.692;10.168;2023-04-25T10:09:20;100533.50;;;12.63
27986;BMP280;15453;53.692;10.168;2023-04-25T10:11:46;100537.38;;;12.67
27986;BMP280;15453;53.692;10.168;2023-04-25T10:14:16;100528.88;;;12.68
27986;BMP280;15453;53.692;10.168;2023-04-25T10:16:41;100536.59;;;12.76
27986;BMP280;15453;53.692;10.168;2023-04-25T10:19:08;100558.59;;;12.81
27986;BMP280;15453;53.692;10.168;2023-04-25T10:21:34;100544.59;;;12.83
27986;BMP280;15453;53.692;10.168;2023-04-25T10:24:02;100561.34;;;12.81
27986;BMP280;15453;53.692;10.168;2023-04-25T10:26:28;100561.34;;;12.81
27986;BMP280;15453;53.692;10.168;2023-04-25T10:28:59;100546.25;;;12.84
27986;BMP280;15453;53.692;10.168;2023-04-25T10:31:26;100551.75;;;12.84
27986;BMP280;15453;53.692;10.168;2023-04-25T10:33:51;100563.91;;;12.98
27986;BMP280;15453;53.692;10.168;2023-04-25T10:36:25;100556.25;;;13.05
27986;BMP280;15453;53.692;10.168;2023-04-25T10:38:52;100556.25;;;13.05
27986;BMP280;15453;53.692;10.168;2023-04-25T10:41:19;100546.63;;;13.07
27986;BMP280;15453;53.692;10.168;2023-04-25T10:43:46;100566.22;;;13.21
27986;BMP280;15453;53.692;10.168;2023-04-25T10:46:21;100563.78;;;13.29
27986;BMP280;15453;53.692;10.168;2023-04-25T10:48:49;100554.16;;;13.32
27986;BMP280;15453;53.692;10.168;2023-04-25T10:53:45;100545.84;;;13.22
27986;BMP280;15453;53.692;10.168;2023-04-25T10:59:02;100592.06;;;13.20
27986;BMP280;15453;53.692;10.168;2023-04-25T11:01:36;100573.84;;;13.04
27986;BMP280;15453;53.692;10.168;2023-04-25T11:04:01;100585.53;;;12.79
27986;BMP280;15453;53.692;10.168;2023-04-25T11:06:46;100583.81;;;12.63
27986;BMP280;15453;53.692;10.168;2023-04-25T11:09:16;100589.47;;;12.52
27986;BMP280;15453;53.692;10.168;2023-04-25T11:11:41;100589.47;;;12.52
27986;BMP280;15453;53.692;10.168;2023-04-25T11:14:07;100574.06;;;12.46
27986;BMP280;15453;53.692;10.168;2023-04-25T11:16:32;100583.69;;;12.43
27986;BMP280;15453;53.692;10.168;2023-04-25T11:18:58;100588.88;;;12.40
27986;BMP280;15453;53.692;10.168;2023-04-25T11:21:25;100594.94;;;12.42
27986;BMP280;15453;53.692;10.168;2023-04-25T11:23:53;100591.66;;;12.45
27986;BMP280;15453;53.692;10.168;2023-04-25T11:26:19;100590.56;;;12.46
27986;BMP280;15453;53.692;10.168;2023-04-25T11:28:45;100607.91;;;12.51
27986;BMP280;15453;53.692;10.168;2023-04-25T11:31:10;100592.81;;;12.54
27986;BMP280;15453;53.692;10.168;2023-04-25T11:33:35;100590.94;;;12.59
27986;BMP280;15453;53.692;10.168;2023-04-25T11:36:01;100595.91;;;12.67
27986;BMP280;15453;53.692;10.168;2023-04-25T11:38:26;100594.06;;;12.78
27986;BMP280;15453;53.692;10.168;2023-04-25T11:40:52;100591.06;;;12.89
27986;BMP280;15453;53.692;10.168;2023-04-25T11:43:20;100584.84;;;12.99
27986;BMP280;15453;53.692;10.168;2023-04-25T11:45:46;100590.63;;;13.07
27986;BMP280;15453;53.692;10.168;2023-04-25T11:48:12;100589.84;;;13.22
27986;BMP280;15453;53.692;10.168;2023-04-25T11:50:39;100591.53;;;13.33
27986;BMP280;15453;53.692;10.168;2023-04-25T11:53:04;100606.69;;;13.40
27986;BMP280;15453;53.692;10.168;2023-04-25T11:55:31;100602.03;;;13.41
27986;BMP280;15453;53.692;10.168;2023-04-25T11:57:59;100607.53;;;13.41
27986;BMP280;15453;53.692;10.168;2023-04-25T12:00:25;100614.34;;;13.28
27986;BMP280;15453;53.692;10.168;2023-04-25T12:02:53;100617.09;;;13.28
27986;BMP280;15453;53.692;10.168;2023-04-25T12:05:19;100614.91;;;13.25
27986;BMP280;15453;53.692;10.168;2023-04-25T12:07:46;100622.84;;;13.17
27986;BMP280;15453;53.692;10.168;2023-04-25T12:10:13;100620.69;;;13.24
27986;BMP280;15453;53.692;10.168;2023-04-25T12:12:41;100604.72;;;13.31
27986;BMP280;15453;53.692;10.168;2023-04-25T12:15:14;100620.97;;;13.32
27986;BMP280;15453;53.692;10.168;2023-04-25T12:17:41;100636.38;;;13.33
27986;BMP280;15453;53.692;10.168;2023-04-25T12:20:17;100634.47;;;13.39
27986;BMP280;15453;53.692;10.168;2023-04-25T12:22:45;100620.97;;;13.37
27986;BMP280;15453;53.692;10.168;2023-04-25T12:25:12;100644.06;;;13.31
27986;BMP280;15453;53.692;10.168;2023-04-25T12:27:38;100622.31;;;13.25
27986;BMP280;15453;53.692;10.168;2023-04-25T12:30:06;100630.84;;;13.23
27986;BMP280;15453;53.692;10.168;2023-04-25T12:32:32;100625.34;;;13.23
27986;BMP280;15453;53.692;10.168;2023-04-25T12:34:57;100641.31;;;13.31
27986;BMP280;15453;53.692;10.168;2023-04-25T12:37:22;100645.72;;;13.37
27986;BMP280;15453;53.692;10.168;2023-04-25T12:39:47;100651.28;;;13.42
27986;BMP280;15453;53.692;10.168;2023-04-25T12:42:13;100631.72;;;13.39
27986;BMP280;15453;53.692;10.168;2023-04-25T12:44:38;100649.31;;;13.33
27986;BMP280;15453;53.692;10.168;2023-04-25T12:47:04;100664.44;;;13.30
27986;BMP280;15453;53.692;10.168;2023-04-25T12:49:30;100664.09;;;13.22
27986;BMP280;15453;53.692;10.168;2023-04-25T12:51:55;100675.63;;;13.14
27986;BMP280;15453;53.692;10.168;2023-04-25T12:54:21;100666.19;;;13.00
27986;BMP280;15453;53.692;10.168;2023-04-25T12:56:46;100655.41;;;12.93
27986;BMP280;15453;53.692;10.168;2023-04-25T12:59:12;100668.88;;;12.90
27986;BMP280;15453;53.692;10.168;2023-04-25T13:01:37;100679.03;;;12.89
27986;BMP280;15453;53.692;10.168;2023-04-25T13:04:03;100678.03;;;13.00
27986;BMP280;15453;53.692;10.168;2023-04-25T13:06:29;100677.84;;;13.17
27986;BMP280;15453;53.692;10.168;2023-04-25T13:08:56;100677.84;;;13.17
27986;BMP280;15453;53.692;10.168;2023-04-25T13:11:21;100674.84;;;13.23
27986;BMP280;15453;53.692;10.168;2023-04-25T13:13:46;100668.91;;;13.46
27986;BMP280;15453;53.692;10.168;2023-04-25T13:16:12;100668.91;;;13.46
27986;BMP280;15453;53.692;10.168;2023-04-25T13:18:39;100692.31;;;13.54
27986;BMP280;15453;53.692;10.168;2023-04-25T13:21:05;100676.09;;;13.62
27986;BMP280;15453;53.692;10.168;2023-04-25T13:23:30;100676.66;;;13.74
27986;BMP280;15453;53.692;10.168;2023-04-25T13:25:56;100676.72;;;13.84
27986;BMP280;15453;53.692;10.168;2023-04-25T13:28:23;100673.69;;;13.91
27986;BMP280;15453;53.692;10.168;2023-04-25T13:30:48;100676.44;;;13.96
27986;BMP280;15453;53.692;10.168;2023-04-25T13:33:14;100679.19;;;13.96
27986;BMP280;15453;53.692;10.168;2023-04-25T13:35:40;100676.75;;;14.04
27986;BMP280;15453;53.692;10.168;2023-04-25T13:38:05;100681.94;;;14.06
27986;BMP280;15453;53.692;10.168;2023-04-25T13:40:31;100680.31;;;14.10
27986;BMP280;15453;53.692;10.168;2023-04-25T13:42:57;100678.13;;;14.17
27986;BMP280;15453;53.692;10.168;2023-04-25T13:45:22;100686.13;;;14.18